createdAt,value
2022-08-01T00:01:35.717Z,2.20
2022-08-01T00:04:05.073Z,2.70
2022-08-01T00:06:33.844Z,2.80
2022-08-01T00:09:02.542Z,3.00
2022-08-01T00:11:31.240Z,3.00
2022-08-01T00:14:01.264Z,3.30
2022-08-01T00:16:30.217Z,3.30
2022-08-01T00:18:58.862Z,3.10
2022-08-01T00:21:27.619Z,3.00
2022-08-01T00:23:58.404Z,2.80
2022-08-01T00:26:27.423Z,3.10
2022-08-01T00:28:56.179Z,2.80
2022-08-01T00:31:25.053Z,3.00
2022-08-01T00:33:54.355Z,2.90
2022-08-01T00:36:23.209Z,3.00
2022-08-01T00:38:52.163Z,3.30
2022-08-01T00:41:24.244Z,3.20
2022-08-01T00:43:53.427Z,3.20
2022-08-01T00:46:22.390Z,3.10
2022-08-01T00:48:51.344Z,3.30
2022-08-01T00:51:20.455Z,3.60
2022-08-01T00:53:51.369Z,3.40
2022-08-01T00:56:27.210Z,3.70
2022-08-01T00:58:57.091Z,3.80
2022-08-01T01:01:26.221Z,4.00
2022-08-01T01:04:09.051Z,4.20
2022-08-01T01:07:34.411Z,4.50
2022-08-01T01:10:48.100Z,4.50
2022-08-01T01:13:24.838Z,4.40
2022-08-01T01:16:03.271Z,3.60
2022-08-01T01:18:55.671Z,4.20
2022-08-01T01:21:27.973Z,4.30
2022-08-01T01:24:21.161Z,4.30
2022-08-01T01:27:36.292Z,4.00
2022-08-01T01:30:05.834Z,3.90
2022-08-01T01:32:48.107Z,3.90
2022-08-01T01:35:26.387Z,3.80
2022-08-01T01:38:06.901Z,3.50
2022-08-01T01:40:35.889Z,3.50
2022-08-01T01:43:04.751Z,3.50
2022-08-01T01:45:33.868Z,3.10
2022-08-01T01:48:03.632Z,3.10
2022-08-01T01:50:33.436Z,3.70
2022-08-01T01:53:04.520Z,3.30
2022-08-01T01:58:19.417Z,3.40
2022-08-01T02:00:50.430Z,3.10
2022-08-01T02:03:21.059Z,3.20
2022-08-01T02:05:53.351Z,3.40
2022-08-01T02:08:22.551Z,3.70
2022-08-01T02:11:11.887Z,3.60
2022-08-01T02:13:41.917Z,4.10
2022-08-01T02:16:14.278Z,3.90
2022-08-01T02:18:43.723Z,4.10
2022-08-01T02:21:15.606Z,4.30
2022-08-01T02:23:45.461Z,4.20
2022-08-01T02:26:17.436Z,4.50
2022-08-01T02:29:02.741Z,4.60
2022-08-01T02:31:34.544Z,4.70
2022-08-01T02:34:11.368Z,4.90
2022-08-01T02:36:40.276Z,5.10
2022-08-01T02:39:11.296Z,5.10
2022-08-01T02:41:44.228Z,4.60
2022-08-01T02:44:23.088Z,5.00
2022-08-01T02:47:03.577Z,5.70
2022-08-01T02:49:35.576Z,6.40
2022-08-01T02:52:09.670Z,5.80
2022-08-01T02:54:38.968Z,5.80
2022-08-01T02:57:09.969Z,6.70
2022-08-01T02:59:45.061Z,6.40
2022-08-01T03:02:15.645Z,6.90
2022-08-01T03:04:45.903Z,6.60
2022-08-01T03:07:15.112Z,6.40
2022-08-01T03:09:46.733Z,6.30
2022-08-01T03:12:20.810Z,6.50
2022-08-01T03:14:52.645Z,6.40
2022-08-01T03:17:23.778Z,6.40
2022-08-01T03:19:54.246Z,7.00
2022-08-01T03:22:25.373Z,7.70
2022-08-01T03:27:25.559Z,7.60
2022-08-01T03:29:57.804Z,6.80
2022-08-01T03:32:28.728Z,6.80
2022-08-01T03:34:58.539Z,7.80
2022-08-01T03:38:13.013Z,6.40
2022-08-01T03:40:42.036Z,6.80
2022-08-01T03:43:42.806Z,8.10
2022-08-01T03:46:22.526Z,8.50
2022-08-01T03:48:57.199Z,7.60
2022-08-01T03:51:26.781Z,8.10
2022-08-01T03:53:57.040Z,8.10
2022-08-01T03:56:26.885Z,7.80
2022-08-01T03:58:56.111Z,7.90
2022-08-01T04:01:25.796Z,7.40
2022-08-01T04:03:55.275Z,7.90
2022-08-01T04:06:24.312Z,8.00
2022-08-01T04:08:59.182Z,8.40
2022-08-01T04:11:29.479Z,8.80
2022-08-01T04:13:58.763Z,8.90
2022-08-01T04:16:27.543Z,8.90
2022-08-01T04:18:57.745Z,8.60
2022-08-01T04:21:29.018Z,8.40
2022-08-01T04:24:01.290Z,8.60
2022-08-01T04:26:32.784Z,9.10
2022-08-01T04:29:03.890Z,10.20
2022-08-01T04:31:33.545Z,10.70
2022-08-01T04:34:04.571Z,11.90
2022-08-01T04:36:37.606Z,10.20
2022-08-01T04:39:07.609Z,11.30
2022-08-01T04:41:37.188Z,10.80
2022-08-01T04:44:06.608Z,10.90
2022-08-01T04:46:36.075Z,11.40
2022-08-01T04:49:10.858Z,10.60
2022-08-01T04:51:58.856Z,9.90
2022-08-01T04:54:38.095Z,10.60
2022-08-01T04:57:07.963Z,10.30
2022-08-01T04:59:43.110Z,7.80
2022-08-01T05:02:19.326Z,6.80
2022-08-01T05:04:48.159Z,6.70
2022-08-01T05:07:17.136Z,7.80
2022-08-01T05:09:49.133Z,7.70
2022-08-01T05:12:18.435Z,8.00
2022-08-01T05:14:47.316Z,8.50
2022-08-01T05:17:16.166Z,7.50
2022-08-01T05:19:44.990Z,8.20
2022-08-01T05:22:14.399Z,8.20
2022-08-01T05:24:43.751Z,7.40
2022-08-01T05:27:15.616Z,8.20
2022-08-01T05:29:45.601Z,9.10
2022-08-01T05:32:14.495Z,8.20
2022-08-01T05:34:43.688Z,7.60
2022-08-01T05:37:12.507Z,8.50
2022-08-01T05:39:41.311Z,8.20
2022-08-01T05:42:10.095Z,7.30
2022-08-01T05:44:38.803Z,7.90
2022-08-01T05:47:07.794Z,7.40
2022-08-01T05:49:36.848Z,5.60
2022-08-01T05:52:06.813Z,5.60
2022-08-01T05:54:35.824Z,5.10
2022-08-01T05:57:05.165Z,5.00
2022-08-01T05:59:33.969Z,4.90
2022-08-01T06:02:02.803Z,4.30
2022-08-01T06:04:31.710Z,5.10
2022-08-01T06:07:00.598Z,4.10
2022-08-01T06:09:30.254Z,4.30
2022-08-01T06:11:59.154Z,3.60
2022-08-01T06:14:28.000Z,4.80
2022-08-01T06:16:56.967Z,4.40
2022-08-01T06:19:27.438Z,3.50
2022-08-01T06:21:56.138Z,3.80
2022-08-01T06:24:25.102Z,3.90
2022-08-01T06:26:54.056Z,4.60
2022-08-01T06:29:22.800Z,4.10
2022-08-01T06:31:51.557Z,4.40
2022-08-01T06:34:20.499Z,5.30
2022-08-01T06:36:49.234Z,4.50
2022-08-01T06:39:18.156Z,3.70
2022-08-01T06:41:49.980Z,3.60
2022-08-01T06:44:18.850Z,3.60
2022-08-01T06:46:47.643Z,3.70
2022-08-01T06:49:16.678Z,4.10
2022-08-01T06:51:45.626Z,4.30
2022-08-01T06:54:14.543Z,3.90
2022-08-01T06:56:44.268Z,4.50
2022-08-01T06:59:13.799Z,4.60
2022-08-01T07:01:42.481Z,4.90
2022-08-01T07:04:11.289Z,5.20
2022-08-01T07:06:40.196Z,4.60
2022-08-01T07:09:13.922Z,4.30
2022-08-01T07:11:43.649Z,3.90
2022-08-01T07:14:12.514Z,4.10
2022-08-01T07:16:41.294Z,4.80
2022-08-01T07:19:10.066Z,4.20
2022-08-01T07:21:41.834Z,4.70
2022-08-01T07:24:15.025Z,4.80
2022-08-01T07:26:52.594Z,4.50
2022-08-01T07:29:27.240Z,4.20
2022-08-01T07:31:58.917Z,4.60
2022-08-01T07:34:27.869Z,3.80
2022-08-01T07:36:56.775Z,3.70
2022-08-01T07:39:25.649Z,4.00
2022-08-01T07:42:07.796Z,4.20
2022-08-01T07:44:37.900Z,4.60
2022-08-01T07:47:09.151Z,3.50
2022-08-01T07:49:40.641Z,3.40
2022-08-01T07:52:10.453Z,3.90
2022-08-01T07:54:39.359Z,3.80
2022-08-01T07:57:08.331Z,3.40
2022-08-01T07:59:37.309Z,2.90
2022-08-01T08:02:07.011Z,3.50
2022-08-01T08:04:36.397Z,3.20
2022-08-01T08:07:05.749Z,2.90
2022-08-01T08:09:37.487Z,3.10
2022-08-01T08:12:08.641Z,3.40
2022-08-01T08:14:38.496Z,2.70
2022-08-01T08:17:07.832Z,3.40
2022-08-01T08:19:41.272Z,3.50
2022-08-01T08:22:12.254Z,4.10
2022-08-01T08:24:46.657Z,3.40
2022-08-01T08:27:19.157Z,2.70
2022-08-01T08:29:50.783Z,3.10
2022-08-01T08:32:19.583Z,3.50
2022-08-01T08:34:48.720Z,3.30
2022-08-01T08:39:49.659Z,3.70
2022-08-01T08:42:21.654Z,3.70
2022-08-01T08:44:53.229Z,3.90
2022-08-01T08:47:24.620Z,3.80
2022-08-01T08:50:01.299Z,4.20
2022-08-01T08:52:30.062Z,3.20
2022-08-01T08:55:00.085Z,3.90
2022-08-01T08:57:54.261Z,3.60
2022-08-01T09:00:23.303Z,3.10
2022-08-01T09:02:54.852Z,3.10
2022-08-01T09:05:38.870Z,3.40
2022-08-01T09:08:09.818Z,3.10
2022-08-01T09:10:39.160Z,2.80
2022-08-01T09:13:15.516Z,3.10
2022-08-01T09:15:49.465Z,2.70
2022-08-01T09:18:37.602Z,2.80
2022-08-01T09:21:25.502Z,2.70
2022-08-01T09:23:59.997Z,2.60
2022-08-01T09:26:35.677Z,2.40
2022-08-01T09:29:07.767Z,2.30
2022-08-01T09:31:47.677Z,1.90
2022-08-01T09:34:28.672Z,2.00
2022-08-01T09:37:02.463Z,2.20
2022-08-01T09:39:41.945Z,2.10
2022-08-01T09:42:21.599Z,1.80
2022-08-01T09:44:58.115Z,2.60
2022-08-01T09:47:40.058Z,2.10
2022-08-01T09:50:11.324Z,2.70
2022-08-01T09:52:41.452Z,2.10
2022-08-01T09:55:10.885Z,2.30
2022-08-01T09:57:39.909Z,2.10
2022-08-01T10:00:43.719Z,1.20
2022-08-01T10:03:27.368Z,1.70
2022-08-01T10:05:56.363Z,1.50
2022-08-01T10:08:26.998Z,1.40
2022-08-01T10:11:13.428Z,1.50
2022-08-01T10:13:47.024Z,1.40
2022-08-01T10:16:21.958Z,1.20
2022-08-01T10:18:51.214Z,1.20
2022-08-01T10:21:56.202Z,1.40
2022-08-01T10:24:13.749Z,1.80
2022-08-01T10:26:43.018Z,2.00
2022-08-01T10:29:44.971Z,1.80
2022-08-01T10:32:01.431Z,1.70
2022-08-01T10:34:36.540Z,1.40
2022-08-01T10:37:07.409Z,1.70
2022-08-01T10:39:38.827Z,1.30
2022-08-01T10:42:15.596Z,2.20
2022-08-01T10:44:48.879Z,1.30
2022-08-01T10:47:26.993Z,1.10
2022-08-01T10:50:25.968Z,1.20
2022-08-01T10:53:23.407Z,1.40
2022-08-01T10:56:02.556Z,1.60
2022-08-01T10:58:42.798Z,1.60
2022-08-01T11:01:33.319Z,1.30
2022-08-01T11:04:04.313Z,1.20
2022-08-01T11:06:36.075Z,1.40
2022-08-01T11:09:17.179Z,1.40
2022-08-01T11:12:06.557Z,1.60
2022-08-01T11:17:41.885Z,1.40
2022-08-01T11:20:42.401Z,1.40
2022-08-01T11:23:13.981Z,1.30
2022-08-01T11:26:03.140Z,1.60
2022-08-01T11:28:36.871Z,1.30
2022-08-01T11:31:11.725Z,2.10
2022-08-01T11:33:46.257Z,2.10
2022-08-01T11:36:18.280Z,1.80
2022-08-01T11:38:59.864Z,1.50
2022-08-01T11:41:37.341Z,1.30
2022-08-01T11:44:18.292Z,1.20
2022-08-01T11:46:58.124Z,1.10
2022-08-01T11:49:33.776Z,1.10
2022-08-01T11:52:10.529Z,1.00
2022-08-01T11:54:43.047Z,1.00
2022-08-01T11:57:34.070Z,1.20
2022-08-01T12:00:19.416Z,1.50
2022-08-01T12:03:01.466Z,1.50
2022-08-01T12:05:43.056Z,1.50
2022-08-01T12:08:12.509Z,1.50
2022-08-01T12:10:49.874Z,1.10
2022-08-01T12:13:19.385Z,1.10
2022-08-01T12:15:56.539Z,1.00
2022-08-01T12:18:25.918Z,1.10
2022-08-01T12:21:05.973Z,0.90
2022-08-01T12:23:35.048Z,1.50
2022-08-01T12:26:05.326Z,0.90
2022-08-01T12:28:41.739Z,0.90
2022-08-01T12:31:10.606Z,0.80
2022-08-01T12:33:41.784Z,0.90
2022-08-01T12:36:14.586Z,1.30
2022-08-01T12:38:43.879Z,1.20
2022-08-01T12:41:12.962Z,0.90
2022-08-01T12:43:41.744Z,1.00
2022-08-01T12:46:17.227Z,1.20
2022-08-01T12:48:46.078Z,1.50
2022-08-01T12:51:15.029Z,1.60
2022-08-01T12:53:43.717Z,1.60
2022-08-01T12:56:12.580Z,1.40
2022-08-01T12:58:41.438Z,1.30
2022-08-01T13:01:13.403Z,1.30
2022-08-01T13:03:42.454Z,1.10
2022-08-01T13:06:17.252Z,1.00
2022-08-01T13:08:47.217Z,1.10
2022-08-01T13:11:18.438Z,1.50
2022-08-01T13:13:50.177Z,1.60
2022-08-01T13:16:43.267Z,1.80
2022-08-01T13:19:15.952Z,1.50
2022-08-01T13:21:59.047Z,2.00
2022-08-01T13:24:31.286Z,2.10
2022-08-01T13:27:05.596Z,2.30
2022-08-01T13:29:42.645Z,2.50
2022-08-01T13:32:29.723Z,2.40
2022-08-01T13:35:09.131Z,2.50
2022-08-01T13:37:39.632Z,2.70
2022-08-01T13:40:11.142Z,2.80
2022-08-01T13:42:40.185Z,3.20
2022-08-01T13:45:13.808Z,3.20
2022-08-01T13:48:04.039Z,3.30
2022-08-01T13:50:33.887Z,3.60
2022-08-01T13:53:02.778Z,3.80
2022-08-01T13:55:34.901Z,3.60
2022-08-01T13:58:04.449Z,3.70
2022-08-01T14:00:33.281Z,4.20
2022-08-01T14:03:02.124Z,4.30
2022-08-01T14:05:31.686Z,4.20
2022-08-01T14:08:00.431Z,4.50
2022-08-01T14:10:30.420Z,4.20
2022-08-01T14:13:00.091Z,4.10
2022-08-01T14:15:37.669Z,4.20
2022-08-01T14:18:10.606Z,4.30
2022-08-01T14:23:09.989Z,5.10
2022-08-01T14:26:00.730Z,4.90
2022-08-01T14:28:29.666Z,4.30
2022-08-01T14:30:59.626Z,4.70
2022-08-01T14:33:28.581Z,4.50
2022-08-01T14:36:05.533Z,4.40
2022-08-01T14:38:36.661Z,4.90
2022-08-01T14:41:05.370Z,5.00
2022-08-01T14:43:34.326Z,4.80
2022-08-01T14:46:04.850Z,4.60
2022-08-01T14:48:33.701Z,5.50
2022-08-01T14:51:05.473Z,5.00
2022-08-01T14:53:36.176Z,4.80
2022-08-01T14:56:05.890Z,4.60
2022-08-01T14:58:34.924Z,6.80
2022-08-01T15:01:06.988Z,5.10
2022-08-01T15:03:35.802Z,5.00
2022-08-01T15:06:05.208Z,5.20
2022-08-01T15:08:34.042Z,5.00
2022-08-01T15:11:02.958Z,5.00
2022-08-01T15:13:31.713Z,4.80
2022-08-01T15:16:00.706Z,5.00
2022-08-01T15:18:30.216Z,5.00
2022-08-01T15:20:58.868Z,4.80
2022-08-01T15:23:27.602Z,4.70
2022-08-01T15:25:56.249Z,4.70
2022-08-01T15:28:24.896Z,4.90
2022-08-01T15:30:53.654Z,5.20
2022-08-01T15:33:23.011Z,5.20
2022-08-01T15:35:52.935Z,4.90
2022-08-01T15:38:22.863Z,5.10
2022-08-01T15:40:51.559Z,5.10
2022-08-01T15:43:20.705Z,5.00
2022-08-01T15:45:49.720Z,5.20
2022-08-01T15:48:18.814Z,5.30
2022-08-01T15:50:49.205Z,4.90
2022-08-01T15:53:17.871Z,5.10
2022-08-01T15:55:52.013Z,5.10
2022-08-01T15:58:21.391Z,5.10
2022-08-01T16:00:50.536Z,5.20
2022-08-01T16:03:19.804Z,4.90
2022-08-01T16:05:50.699Z,4.80
2022-08-01T16:08:19.615Z,4.90
2022-08-01T16:10:48.354Z,5.10
2022-08-01T16:13:17.296Z,4.50
2022-08-01T16:15:46.067Z,4.50
2022-08-01T16:18:16.240Z,4.70
2022-08-01T16:20:46.047Z,4.90
2022-08-01T16:23:16.084Z,4.70
2022-08-01T16:25:45.234Z,4.80
2022-08-01T16:28:14.530Z,5.10
2022-08-01T16:30:48.557Z,4.60
2022-08-01T16:33:40.320Z,4.70
2022-08-01T16:36:18.940Z,4.40
2022-08-01T16:38:48.494Z,5.20
2022-08-01T16:41:19.541Z,4.60
2022-08-01T16:43:53.370Z,4.60
2022-08-01T16:46:27.222Z,4.40
2022-08-01T16:48:56.069Z,4.70
2022-08-01T16:51:25.015Z,4.10
2022-08-01T16:53:53.916Z,3.80
2022-08-01T16:56:22.713Z,4.10
2022-08-01T16:58:51.522Z,3.90
2022-08-01T17:02:01.518Z,3.90
2022-08-01T17:04:09.212Z,3.60
2022-08-01T17:06:37.928Z,3.60
2022-08-01T17:09:06.861Z,3.50
2022-08-01T17:11:35.684Z,3.20
2022-08-01T17:14:05.939Z,3.30
2022-08-01T17:16:34.905Z,2.80
2022-08-01T17:19:03.979Z,3.00
2022-08-01T17:21:33.808Z,3.20
2022-08-01T17:24:02.672Z,2.70
2022-08-01T17:26:31.967Z,2.80
2022-08-01T17:29:04.230Z,2.70
2022-08-01T17:31:33.179Z,3.10
2022-08-01T17:34:01.896Z,2.60
2022-08-01T17:36:30.720Z,2.70
2022-08-01T17:39:00.196Z,2.40
2022-08-01T17:41:29.168Z,2.50
2022-08-01T17:43:58.120Z,2.30
2022-08-01T17:46:26.919Z,2.30
2022-08-01T17:48:55.834Z,2.70
2022-08-01T17:51:24.759Z,2.50
2022-08-01T17:53:56.733Z,2.50
2022-08-01T17:56:27.536Z,2.30
2022-08-01T17:58:56.751Z,2.50
2022-08-01T18:01:26.599Z,2.50
2022-08-01T18:03:58.702Z,2.10
2022-08-01T18:06:28.685Z,2.30
2022-08-01T18:08:59.601Z,2.40
2022-08-01T18:11:37.165Z,2.60
2022-08-01T18:14:06.629Z,2.40
2022-08-01T18:16:35.420Z,2.60
2022-08-01T18:19:06.984Z,2.30
2022-08-01T18:21:39.699Z,2.40
2022-08-01T18:24:11.249Z,2.20
2022-08-01T18:26:39.909Z,2.30
2022-08-01T18:29:10.172Z,2.50
2022-08-01T18:31:41.369Z,2.50
2022-08-01T18:34:10.725Z,2.10
2022-08-01T18:36:40.359Z,2.30
2022-08-01T18:39:10.387Z,2.20
2022-08-01T18:41:40.088Z,2.30
2022-08-01T18:44:09.423Z,2.40
2022-08-01T18:46:40.095Z,2.60
2022-08-01T18:49:11.819Z,2.50
2022-08-01T18:51:44.777Z,2.10
2022-08-01T18:54:17.297Z,2.40
2022-08-01T18:56:46.451Z,2.60
2022-08-01T18:59:15.249Z,2.70
2022-08-01T19:01:44.314Z,2.80
2022-08-01T19:04:13.727Z,2.70
2022-08-01T19:06:43.557Z,2.80
2022-08-01T19:09:20.528Z,2.70
2022-08-01T19:11:49.875Z,3.00
2022-08-01T19:14:18.646Z,3.00
2022-08-01T19:16:47.619Z,2.60
2022-08-01T19:19:27.549Z,2.80
2022-08-01T19:21:57.815Z,2.60
2022-08-01T19:24:26.703Z,2.90
2022-08-01T19:27:08.427Z,2.60
2022-08-01T19:29:39.671Z,2.50
2022-08-01T19:32:10.852Z,2.70
2022-08-01T19:34:50.239Z,3.00
2022-08-01T19:37:21.085Z,3.10
2022-08-01T19:39:52.417Z,2.90
2022-08-01T19:42:21.262Z,2.60
2022-08-01T19:44:51.400Z,2.60
2022-08-01T19:47:20.374Z,2.90
2022-08-01T19:49:49.328Z,2.70
2022-08-01T19:52:20.408Z,2.80
2022-08-01T19:54:51.247Z,2.30
2022-08-01T19:57:20.984Z,2.70
2022-08-01T19:59:55.914Z,2.50
2022-08-01T20:02:25.552Z,2.40
2022-08-01T20:04:54.539Z,2.50
2022-08-01T20:07:23.439Z,2.70
2022-08-01T20:09:54.258Z,2.40
2022-08-01T20:12:23.857Z,2.40
2022-08-01T20:14:54.144Z,2.40
2022-08-01T20:17:24.387Z,2.40
2022-08-01T20:19:54.105Z,2.30
2022-08-01T20:22:27.071Z,2.10
2022-08-01T20:24:59.589Z,2.20
2022-08-01T20:27:31.554Z,2.20
2022-08-01T20:30:01.153Z,2.30
2022-08-01T20:32:34.095Z,2.30
2022-08-01T20:35:05.390Z,2.00
2022-08-01T20:38:06.757Z,2.30
2022-08-01T20:40:30.551Z,2.40
2022-08-01T20:42:59.478Z,2.30
2022-08-01T20:45:28.612Z,2.30
2022-08-01T20:47:59.752Z,1.80
2022-08-01T20:50:53.815Z,2.30
2022-08-01T20:53:24.735Z,2.30
2022-08-01T20:56:05.028Z,2.30
2022-08-01T20:59:51.613Z,2.30
2022-08-01T21:02:51.752Z,2.30
2022-08-01T21:05:38.589Z,2.40
2022-08-01T21:08:24.810Z,2.10
2022-08-01T21:10:58.507Z,2.50
2022-08-01T21:13:43.286Z,2.70
2022-08-01T21:16:23.743Z,2.30
2022-08-01T21:22:09.751Z,2.60
2022-08-01T21:24:58.969Z,2.50
2022-08-01T21:27:33.144Z,2.80
2022-08-01T21:30:07.647Z,2.80
2022-08-01T21:32:37.995Z,2.80
2022-08-01T21:35:16.341Z,2.60
2022-08-01T21:37:52.470Z,2.90
2022-08-01T21:40:24.118Z,2.70
2022-08-01T21:42:54.664Z,2.30
2022-08-01T21:45:27.406Z,2.70
2022-08-01T21:47:58.284Z,2.40
2022-08-01T21:50:27.031Z,2.60
2022-08-01T21:53:15.025Z,2.20
2022-08-01T21:56:14.515Z,2.30
2022-08-01T21:59:40.183Z,2.30
2022-08-01T22:02:16.003Z,2.10
2022-08-01T22:05:04.979Z,2.50
2022-08-01T22:07:48.757Z,2.50
2022-08-01T22:10:20.162Z,2.70
2022-08-01T22:12:49.156Z,2.40
2022-08-01T22:15:20.664Z,2.40
2022-08-01T22:17:51.890Z,3.00
2022-08-01T22:20:25.850Z,2.70
2022-08-01T22:22:55.786Z,2.70
2022-08-01T22:25:24.987Z,2.30
2022-08-01T22:28:02.873Z,3.00
2022-08-01T22:30:42.498Z,3.10
2022-08-01T22:33:17.269Z,2.70
2022-08-01T22:35:50.008Z,2.60
2022-08-01T22:38:23.808Z,2.80
2022-08-01T22:41:05.567Z,2.80
2022-08-01T22:44:05.180Z,3.00
2022-08-01T22:47:07.598Z,2.80
2022-08-01T22:50:01.957Z,3.10
2022-08-01T22:52:33.866Z,2.90
2022-08-01T22:55:09.453Z,3.00
2022-08-01T22:57:50.298Z,3.20
2022-08-01T23:00:19.608Z,2.90
2022-08-01T23:03:11.824Z,3.00
2022-08-01T23:06:07.512Z,3.10
2022-08-01T23:08:37.254Z,3.10
2022-08-01T23:11:08.359Z,2.90
2022-08-01T23:16:05.874Z,2.90
2022-08-01T23:18:34.760Z,3.10
2022-08-01T23:21:04.243Z,3.00
2022-08-01T23:23:34.161Z,3.30
2022-08-01T23:26:03.711Z,2.90
2022-08-01T23:28:32.701Z,3.20
2022-08-01T23:31:01.979Z,3.20
2022-08-01T23:33:30.809Z,3.20
2022-08-01T23:35:59.603Z,3.50
2022-08-01T23:38:28.326Z,3.30
2022-08-01T23:40:57.158Z,3.40
2022-08-01T23:43:26.039Z,3.40
2022-08-01T23:46:04.476Z,3.30
2022-08-01T23:48:35.834Z,3.60
2022-08-01T23:51:06.436Z,4.30
2022-08-01T23:53:38.708Z,3.90
2022-08-01T23:56:07.624Z,3.60
2022-08-01T23:58:36.564Z,4.30
